Time;durP1;ratioP1;P1;durP2;ratioP2;P2;SDS_P1;SDS_P2;PMS_P1;PMS_P2;Temp;Humidity;BMP_temperature;BMP_pressure;BME280_temperature;BME280_humidity;BME280_pressure;Samples;Min_cycle;Max_cycle;Signal;HPM_P1;HPM_P2
2022/09/03 00:00:25;;;;;;;;;;;;;;;15.27;64.72;101190.50;12870038;23;19995;-67
2022/09/03 00:05:42;;;;;;;;;;;;;;;14.80;66.08;101180.75;12860470;23;19920;-69
2022/09/03 00:10:46;;;;;;;;;;;;;;;15.01;64.94;101181.28;12859741;23;20186;-69
2022/09/03 00:15:53;;;;;;;;;;;;;;;14.85;65.39;101181.53;12859656;23;19951;-68
2022/09/03 00:20:58;;;;;;;;;;;;;;;14.66;66.01;101193.13;12868922;23;19954;-69
2022/09/03 00:26:17;;;;;;;;;;;;;;;14.89;64.98;101186.69;12858666;23;19920;-67
2022/09/03 00:31:26;;;;;;;;;;;;;;;14.73;65.03;101182.59;12868638;23;19935;-67
2022/09/03 00:36:33;;;;;;;;;;;;;;;14.71;65.07;101184.34;12870343;23;19928;-69
2022/09/03 00:41:40;;;;;;;;;;;;;;;14.71;65.60;101178.25;12871555;23;19991;-76
2022/09/03 00:46:48;;;;;;;;;;;;;;;14.82;64.78;101176.34;12875378;23;19943;-72
2022/09/03 00:51:56;;;;;;;;;;;;;;;14.85;63.96;101182.41;12875025;23;19951;-72
2022/09/03 00:57:06;;;;;;;;;;;;;;;14.75;64.06;101188.63;12874689;23;19996;-72
2022/09/03 01:02:15;;;;;;;;;;;;;;;14.60;64.35;101198.44;12875400;23;19997;-71
2022/09/03 01:07:26;;;;;;;;;;;;;;;14.57;64.52;101194.13;12878227;23;19997;-72
2022/09/03 01:12:39;;;;;;;;;;;;;;;14.59;64.63;101188.88;12877399;23;19995;-73
2022/09/03 01:17:51;;;;;;;;;;;;;;;14.31;65.70;101192.69;12876842;23;20018;-71
2022/09/03 01:23:19;;;;;;;;;;;;;;;14.47;64.98;101195.13;12876894;23;19920;-73
2022/09/03 01:28:39;;;;;;;;;;;;;;;14.42;64.83;101190.81;12762765;23;20338;-70
2022/09/03 01:33:45;;;;;;;;;;;;;;;14.24;65.73;101189.25;12873611;23;19974;-71
2022/09/03 01:38:53;;;;;;;;;;;;;;;14.39;64.83;101190.88;12869096;23;20286;-70
2022/09/03 01:44:03;;;;;;;;;;;;;;;14.27;65.05;101186.63;12873131;23;19955;-68
2022/09/03 01:49:14;;;;;;;;;;;;;;;14.30;64.64;101184.03;12872536;23;19955;-71
2022/09/03 01:54:38;;;;;;;;;;;;;;;14.28;64.55;101188.38;12872263;23;19920;-72
2022/09/03 01:59:46;;;;;;;;;;;;;;;14.00;65.21;101186.06;12870796;23;19947;-70
2022/09/03 02:04:59;;;;;;;;;;;;;;;13.96;65.41;101181.78;12869184;23;19924;-72
2022/09/03 02:10:03;;;;;;;;;;;;;;;13.93;65.36;101180.91;12889575;23;20000;-70
2022/09/03 02:15:12;;;;;;;;;;;;;;;13.86;65.37;101167.94;12868593;23;19920;-71
2022/09/03 02:20:18;;;;;;;;;;;;;;;13.80;65.44;101174.06;12890080;23;19919;-69
2022/09/03 02:25:23;;;;;;;;;;;;;;;13.74;65.78;101176.78;12887542;23;19930;-73
2022/09/03 02:30:27;;;;;;;;;;;;;;;13.67;66.30;101167.28;12868333;23;19998;-74
2022/09/03 02:35:30;;;;;;;;;;;;;;;13.73;65.82;101175.06;12869484;23;19944;-76
2022/09/03 02:40:34;;;;;;;;;;;;;;;13.64;66.38;101182.97;12868586;23;19954;-74
2022/09/03 02:45:42;;;;;;;;;;;;;;;13.65;66.22;101168.19;12868278;23;20000;-71
2022/09/03 02:50:45;;;;;;;;;;;;;;;13.61;66.53;101167.34;12888953;23;19966;-71
2022/09/03 02:55:48;;;;;;;;;;;;;;;13.44;67.06;101177.03;12868376;23;19920;-71
2022/09/03 03:00:52;;;;;;;;;;;;;;;13.46;66.94;101169.22;12868056;23;19959;-72
2022/09/03 03:05:57;;;;;;;;;;;;;;;13.40;66.72;101171.88;12867935;23;20319;-71
2022/09/03 03:11:00;;;;;;;;;;;;;;;13.26;67.60;101169.38;12867619;23;20331;-72
2022/09/03 03:16:06;;;;;;;;;;;;;;;13.27;67.62;101175.47;12867509;23;19947;-75
2022/09/03 03:21:09;;;;;;;;;;;;;;;13.34;67.44;101179.75;12868232;23;20042;-73
2022/09/03 03:26:13;;;;;;;;;;;;;;;13.30;67.57;101178.91;12866770;23;20235;-71
2022/09/03 03:31:18;;;;;;;;;;;;;;;13.26;67.87;101177.19;12867194;23;19999;-77
2022/09/03 03:36:22;;;;;;;;;;;;;;;13.30;67.85;101186.75;12867094;23;20003;-72
2022/09/03 03:41:26;;;;;;;;;;;;;;;13.20;67.96;101187.66;12867053;23;19955;-73
2022/09/03 03:46:33;;;;;;;;;;;;;;;13.04;68.64;101201.69;12888512;23;19943;-74
2022/09/03 03:51:37;;;;;;;;;;;;;;;13.00;68.71;101197.34;12866717;23;20351;-71
2022/09/03 03:56:40;;;;;;;;;;;;;;;13.11;68.52;101198.19;12867489;23;20308;-71
2022/09/03 04:01:44;;;;;;;;;;;;;;;13.09;68.64;101194.72;12866579;23;19943;-70
2022/09/03 04:06:47;;;;;;;;;;;;;;;13.17;68.37;101195.50;12868193;23;19987;-71
2022/09/03 04:11:50;;;;;;;;;;;;;;;13.03;69.15;101201.72;12867094;23;19920;-72
2022/09/03 04:16:55;;;;;;;;;;;;;;;13.03;69.04;101194.75;12866479;23;19947;-70
2022/09/03 04:21:58;;;;;;;;;;;;;;;12.99;68.84;101194.75;12866377;23;20326;-69
2022/09/03 04:27:01;;;;;;;;;;;;;;;12.95;69.33;101201.72;12866586;23;19954;-73
2022/09/03 04:37:27;;;;;;;;;;;;;;;13.12;69.11;101199.03;12886922;23;19954;-71
2022/09/03 04:42:30;;;;;;;;;;;;;;;12.96;69.25;101207.81;12866014;23;19939;-70
2022/09/03 04:47:35;;;;;;;;;;;;;;;12.86;69.98;101209.59;12866184;23;19947;-71
2022/09/03 04:52:38;;;;;;;;;;;;;;;13.06;69.69;101210.38;12866278;23;20341;-75
2022/09/03 04:57:41;;;;;;;;;;;;;;;12.98;69.59;101212.13;12866080;23;20291;-73
2022/09/03 05:02:48;;;;;;;;;;;;;;;13.04;69.85;101217.34;12865955;23;19991;-74
2022/09/03 05:07:52;;;;;;;;;;;;;;;12.91;69.20;101215.63;12865820;23;19927;-70
2022/09/03 05:12:58;;;;;;;;;;;;;;;12.94;69.39;101220.84;12865708;23;20007;-73
2022/09/03 05:18:02;;;;;;;;;;;;;;;13.07;70.07;101227.72;12886546;23;19950;-71
2022/09/03 05:23:06;;;;;;;;;;;;;;;13.18;70.49;101225.94;12865542;23;19998;-70
2022/09/03 05:28:09;;;;;;;;;;;;;;;13.25;70.22;101231.97;12865369;23;19958;-72
2022/09/03 05:33:15;;;;;;;;;;;;;;;13.21;69.73;101225.91;12865586;23;19929;-72
2022/09/03 05:38:18;;;;;;;;;;;;;;;13.26;70.85;101229.34;12866056;23;19987;-71
2022/09/03 05:43:21;;;;;;;;;;;;;;;13.43;70.79;101230.09;12865404;23;19944;-70
2022/09/03 05:48:25;;;;;;;;;;;;;;;13.62;70.52;101228.19;12866361;23;20197;-73
2022/09/03 05:53:29;;;;;;;;;;;;;;;13.76;70.83;101226.31;12869024;23;20003;-71
2022/09/03 05:58:32;;;;;;;;;;;;;;;13.75;70.97;101220.22;12868935;23;19931;-70
2022/09/03 06:03:36;;;;;;;;;;;;;;;13.85;71.25;101221.03;12868967;23;19948;-75
2022/09/03 06:08:40;;;;;;;;;;;;;;;14.01;71.09;101219.13;12868714;23;19944;-72
2022/09/03 06:13:43;;;;;;;;;;;;;;;14.04;70.32;101212.13;12868984;23;19931;-72
2022/09/03 06:18:48;;;;;;;;;;;;;;;14.03;70.60;101217.38;12869112;23;20226;-67
2022/09/03 06:23:51;;;;;;;;;;;;;;;14.05;71.62;101210.41;12868487;23;19953;-67
2022/09/03 06:28:55;;;;;;;;;;;;;;;14.10;70.47;101206.00;12868038;23;20272;-67
2022/09/03 06:34:01;;;;;;;;;;;;;;;14.23;70.63;101210.19;12868029;23;20181;-65
2022/09/03 06:39:06;;;;;;;;;;;;;;;14.36;69.12;101219.63;12884030;23;19943;-72
2022/09/03 06:44:11;;;;;;;;;;;;;;;14.57;68.72;101215.00;12862015;23;19962;-73
2022/09/03 06:49:16;;;;;;;;;;;;;;;14.66;68.31;101219.25;12881844;23;19928;-73
2022/09/03 06:54:19;;;;;;;;;;;;;;;14.83;68.17;101217.28;12860616;23;19920;-73
2022/09/03 06:59:22;;;;;;;;;;;;;;;14.91;67.86;101210.19;12860197;23;19955;-74
2022/09/03 07:04:26;;;;;;;;;;;;;;;15.02;67.03;101214.41;12862017;23;20258;-72
2022/09/03 07:09:34;;;;;;;;;;;;;;;15.13;66.67;101210.75;12866799;23;19991;-73
2022/09/03 07:14:38;;;;;;;;;;;;;;;15.23;66.37;101207.09;12869091;23;19966;-72
2022/09/03 07:19:42;;;;;;;;;;;;;;;15.36;66.12;101204.25;12840727;23;19920;-71
2022/09/03 07:24:46;;;;;;;;;;;;;;;15.45;65.67;101206.78;12866546;23;20286;-72
2022/09/03 07:29:49;;;;;;;;;;;;;;;15.61;64.79;101208.25;12866545;23;19920;-71
2022/09/03 07:34:53;;;;;;;;;;;;;;;15.78;63.39;101211.44;12866408;23;19927;-70
2022/09/03 07:39:57;;;;;;;;;;;;;;;15.85;63.03;101213.06;12866560;23;19944;-72
2022/09/03 07:45:00;;;;;;;;;;;;;;;16.00;62.24;101209.28;12866358;23;19974;-71
2022/09/03 07:50:05;;;;;;;;;;;;;;;16.09;61.70;101204.75;12866305;23;19995;-71
2022/09/03 07:55:09;;;;;;;;;;;;;;;16.22;61.26;101208.00;12865963;23;19947;-73
2022/09/03 08:00:13;;;;;;;;;;;;;;;16.34;60.76;101206.91;12866220;23;19939;-74
2022/09/03 08:05:19;;;;;;;;;;;;;;;16.49;60.06;101209.22;12865798;23;19987;-69
2022/09/03 08:10:23;;;;;;;;;;;;;;;16.57;59.20;101209.91;12870164;23;19951;-72
2022/09/03 08:15:26;;;;;;;;;;;;;;;16.71;58.03;101208.75;12866249;23;20330;-72
2022/09/03 08:20:31;;;;;;;;;;;;;;;16.82;57.46;101209.41;12866445;23;19943;-72
2022/09/03 08:25:34;;;;;;;;;;;;;;;16.99;57.60;101203.75;12866196;23;19920;-71
2022/09/03 08:30:37;;;;;;;;;;;;;;;17.17;56.62;101201.56;12870616;23;19931;-73
2022/09/03 08:35:41;;;;;;;;;;;;;;;17.31;55.84;101202.09;12866190;23;19944;-71
2022/09/03 08:40:44;;;;;;;;;;;;;;;17.44;54.94;101192.19;12866171;23;19992;-76
2022/09/03 08:45:47;;;;;;;;;;;;;;;17.58;54.88;101192.72;12866057;23;19940;-75
2022/09/03 08:50:58;;;;;;;;;;;;;;;17.71;54.41;101183.63;12865937;23;20311;-73
2022/09/03 08:56:05;;;;;;;;;;;;;;;17.81;54.06;101173.75;12865729;23;19931;-72
2022/09/03 09:01:14;;;;;;;;;;;;;;;17.90;53.75;101166.47;12870364;23;20299;-73
2022/09/03 09:06:21;;;;;;;;;;;;;;;18.05;53.48;101163.41;12870431;23;20298;-72
2022/09/03 09:11:30;;;;;;;;;;;;;;;18.31;52.08;101166.19;12870097;23;20343;-72
2022/09/03 09:16:38;;;;;;;;;;;;;;;18.63;51.05;101161.78;12869756;23;19943;-72
2022/09/03 09:21:45;;;;;;;;;;;;;;;18.92;49.48;101161.75;12870289;23;20326;-72
2022/09/03 09:26:49;;;;;;;;;;;;;;;19.11;48.64;101157.63;12869208;23;19920;-75
2022/09/03 09:31:53;;;;;;;;;;;;;;;19.36;47.64;101161.22;12869465;23;19951;-74
2022/09/03 09:36:57;;;;;;;;;;;;;;;19.58;47.83;101162.22;12869794;23;19939;-72
2022/09/03 09:42:08;;;;;;;;;;;;;;;19.85;47.29;101155.97;12870207;23;20226;-74
2022/09/03 09:47:12;;;;;;;;;;;;;;;20.41;46.28;101154.81;12874311;23;19940;-75
2022/09/03 09:52:17;;;;;;;;;;;;;;;24.73;38.50;101133.56;12865363;23;19934;-77
2022/09/03 09:57:22;;;;;;;;;;;;;;;23.27;41.00;101130.72;12863766;23;19944;-76
2022/09/03 10:02:27;;;;;;;;;;;;;;;23.09;41.07;101134.28;12866695;23;19948;-73
2022/09/03 10:07:32;;;;;;;;;;;;;;;23.16;40.18;101141.00;12862764;23;20034;-75
2022/09/03 10:12:39;;;;;;;;;;;;;;;23.26;40.89;101130.81;12863560;23;19920;-74
2022/09/03 10:17:46;;;;;;;;;;;;;;;23.39;40.03;101131.94;12869099;23;20003;-73
2022/09/03 10:22:53;;;;;;;;;;;;;;;23.36;39.58;101138.25;12867612;23;20120;-75
2022/09/03 10:28:00;;;;;;;;;;;;;;;23.51;39.30;101120.72;12866189;23;19923;-74
2022/09/03 10:33:09;;;;;;;;;;;;;;;23.74;38.83;101110.66;12860890;23;20011;-75
2022/09/03 10:38:17;;;;;;;;;;;;;;;23.97;38.77;101115.59;12866474;23;20037;-73
2022/09/03 10:43:31;;;;;;;;;;;;;;;24.21;38.39;101116.13;12866398;23;20002;-72
2022/09/03 10:48:43;;;;;;;;;;;;;;;24.43;38.07;101102.50;12866238;23;20541;-73
2022/09/03 10:54:04;;;;;;;;;;;;;;;24.53;36.71;101091.31;12865149;23;20037;-74
2022/09/03 10:59:19;;;;;;;;;;;;;;;24.89;36.97;101085.72;12864131;23;20307;-72
2022/09/03 11:04:28;;;;;;;;;;;;;;;25.30;35.63;101086.81;12860666;23;19932;-78
2022/09/03 11:09:35;;;;;;;;;;;;;;;25.73;35.30;101074.53;12863824;23;20315;-71
2022/09/03 11:14:40;;;;;;;;;;;;;;;25.86;33.71;101083.44;12863423;23;19930;-78
2022/09/03 11:19:50;;;;;;;;;;;;;;;26.42;34.20;101070.09;12863169;23;19958;-72
2022/09/03 11:24:56;;;;;;;;;;;;;;;26.98;32.93;101069.97;12881254;23;19952;-74
2022/09/03 11:30:05;;;;;;;;;;;;;;;27.28;32.15;101054.56;12880837;23;19997;-72
2022/09/03 11:35:14;;;;;;;;;;;;;;;27.67;31.93;101063.50;12881335;23;19963;-72
2022/09/03 11:40:18;;;;;;;;;;;;;;;27.91;31.34;101056.47;12882469;23;19956;-73
2022/09/03 11:45:34;;;;;;;;;;;;;;;28.29;31.10;101062.59;12834639;23;19927;-77
2022/09/03 11:50:37;;;;;;;;;;;;;;;29.04;30.27;101046.28;12862202;23;19951;-73
2022/09/03 11:55:53;;;;;;;;;;;;;;;29.27;29.46;101041.88;12860631;23;20296;-72
2022/09/03 12:01:00;;;;;;;;;;;;;;;29.62;29.94;101041.81;12864257;23;19970;-79
2022/09/03 12:06:13;;;;;;;;;;;;;;;30.07;29.27;101032.84;12882037;23;19931;-73
2022/09/03 12:11:25;;;;;;;;;;;;;;;30.20;29.01;101028.22;12881326;23;20002;-72
2022/09/03 12:16:38;;;;;;;;;;;;;;;30.53;29.23;101023.66;12859722;23;20274;-74
2022/09/03 12:21:41;;;;;;;;;;;;;;;30.88;28.64;101011.88;12860211;23;19951;-74
2022/09/03 12:26:44;;;;;;;;;;;;;;;30.70;28.00;101014.25;12858530;23;19924;-74
2022/09/03 12:31:50;;;;;;;;;;;;;;;31.35;27.48;101001.53;12859391;23;19940;-73
2022/09/03 12:36:54;;;;;;;;;;;;;;;33.86;25.56;100982.66;12879640;23;19923;-69
2022/09/03 12:42:00;;;;;;;;;;;;;;;35.16;24.16;100968.69;12860793;23;20374;-74
2022/09/03 12:47:06;;;;;;;;;;;;;;;35.37;24.36;100951.13;12861605;23;19947;-71
2022/09/03 12:52:31;;;;;;;;;;;;;;;35.23;23.95;100962.50;12859228;23;20006;-74
2022/09/03 12:57:38;;;;;;;;;;;;;;;34.37;25.22;100967.78;12859609;23;20319;-74
2022/09/03 13:02:46;;;;;;;;;;;;;;;33.14;26.67;100967.28;12864338;23;19998;-74
2022/09/03 13:07:52;;;;;;;;;;;;;;;32.43;27.12;100979.31;12864690;23;19951;-74
2022/09/03 13:12:59;;;;;;;;;;;;;;;32.08;26.97;100987.03;12884008;23;19927;-72
2022/09/03 13:18:21;;;;;;;;;;;;;;;31.26;27.19;100975.44;12883415;23;19958;-75
2022/09/03 13:23:36;;;;;;;;;;;;;;;30.95;27.75;100962.97;12862683;23;19962;-74
2022/09/03 13:28:46;;;;;;;;;;;;;;;30.36;27.79;100965.25;12862197;23;20370;-78
2022/09/03 13:33:53;;;;;;;;;;;;;;;29.61;28.61;100962.50;12883636;23;20335;-72
2022/09/03 13:39:01;;;;;;;;;;;;;;;29.20;28.67;100963.09;12885951;23;19991;-73
2022/09/03 13:44:08;;;;;;;;;;;;;;;28.55;28.59;100961.88;12864663;23;19978;-75
2022/09/03 13:54:43;;;;;;;;;;;;;;;27.35;30.77;100964.38;12862782;23;19924;-73
2022/09/03 13:59:52;;;;;;;;;;;;;;;27.02;31.41;100964.00;12882179;23;19923;-68
2022/09/03 14:05:03;;;;;;;;;;;;;;;26.81;31.48;100966.31;12882156;23;19924;-69
2022/09/03 14:10:16;;;;;;;;;;;;;;;26.59;30.93;100967.84;12881880;23;19935;-68
2022/09/03 14:15:22;;;;;;;;;;;;;;;26.40;31.38;100962.00;12882017;23;20014;-66
2022/09/03 14:20:28;;;;;;;;;;;;;;;26.43;32.45;100970.66;12881402;23;20335;-68
2022/09/03 14:25:32;;;;;;;;;;;;;;;26.16;32.00;100967.13;12879785;23;19934;-75
2022/09/03 14:30:41;;;;;;;;;;;;;;;26.07;32.03;100962.41;12861870;23;20339;-72
2022/09/03 14:35:58;;;;;;;;;;;;;;;25.88;32.38;100956.50;12881608;23;19920;-72
2022/09/03 14:41:04;;;;;;;;;;;;;;;25.38;32.32;100962.34;12860793;23;19999;-72
2022/09/03 14:46:12;;;;;;;;;;;;;;;25.34;32.71;100960.78;12881256;23;20295;-71
2022/09/03 14:51:31;;;;;;;;;;;;;;;25.17;32.81;100952.13;12881753;23;19957;-77
2022/09/03 14:56:42;;;;;;;;;;;;;;;25.08;33.29;100962.38;12880458;23;19928;-72
2022/09/03 15:01:47;;;;;;;;;;;;;;;24.83;33.56;100954.13;12862181;23;19927;-73
2022/09/03 15:06:58;;;;;;;;;;;;;;;24.52;34.09;100964.81;12881002;23;20359;-72
2022/09/03 15:12:07;;;;;;;;;;;;;;;24.15;34.03;100965.22;12860333;23;19931;-72
2022/09/03 15:17:20;;;;;;;;;;;;;;;23.82;34.05;100964.38;12880804;23;19920;-72
2022/09/03 15:22:32;;;;;;;;;;;;;;;23.72;34.62;100966.69;12880786;23;19935;-70
2022/09/03 15:27:47;;;;;;;;;;;;;;;23.56;34.61;100968.47;12860996;23;19982;-75
2022/09/03 15:32:57;;;;;;;;;;;;;;;23.48;34.98;100972.47;12860742;23;19991;-73
2022/09/03 15:38:04;;;;;;;;;;;;;;;23.25;35.06;100967.47;12878493;23;19954;-71
2022/09/03 15:43:11;;;;;;;;;;;;;;;23.20;35.67;100964.22;12877988;23;19920;-71
2022/09/03 15:48:21;;;;;;;;;;;;;;;23.05;35.91;100965.00;12878074;23;19923;-73
2022/09/03 15:53:33;;;;;;;;;;;;;;;22.94;36.50;100968.22;12877542;23;19934;-72
2022/09/03 15:58:39;;;;;;;;;;;;;;;22.77;36.91;100978.81;12860078;23;19954;-74
2022/09/03 16:03:47;;;;;;;;;;;;;;;22.70;37.30;100978.25;12870492;23;20011;-73
2022/09/03 16:08:54;;;;;;;;;;;;;;;22.53;37.35;100974.69;12859926;23;19919;-74
2022/09/03 16:14:04;;;;;;;;;;;;;;;22.44;38.59;100976.00;12859339;23;19939;-75
2022/09/03 16:19:11;;;;;;;;;;;;;;;22.26;38.94;100981.34;12878076;23;19919;-70
2022/09/03 16:24:19;;;;;;;;;;;;;;;22.17;39.10;100992.34;12877589;23;19995;-67
2022/09/03 16:29:25;;;;;;;;;;;;;;;22.00;39.41;100985.22;12859321;23;19928;-71
2022/09/03 16:34:33;;;;;;;;;;;;;;;21.91;39.65;100993.56;12833215;23;19930;-70
2022/09/03 16:39:45;;;;;;;;;;;;;;;21.80;40.09;100993.19;12877411;23;20013;-69
2022/09/03 16:44:54;;;;;;;;;;;;;;;21.65;41.01;100993.88;12877259;23;20285;-71
2022/09/03 16:50:04;;;;;;;;;;;;;;;21.52;41.35;100998.84;12833616;23;19951;-70
2022/09/03 16:55:17;;;;;;;;;;;;;;;21.36;41.28;100989.03;12861056;23;19962;-70
2022/09/03 17:00:21;;;;;;;;;;;;;;;21.24;42.69;100990.44;12878367;23;19924;-71
2022/09/03 17:05:35;;;;;;;;;;;;;;;21.09;43.50;100998.19;12877879;23;19995;-70
2022/09/03 17:10:44;;;;;;;;;;;;;;;20.98;43.50;100997.72;12876464;23;19998;-70
2022/09/03 17:15:49;;;;;;;;;;;;;;;20.84;43.84;101002.72;12876099;23;19962;-69
2022/09/03 17:21:04;;;;;;;;;;;;;;;20.72;43.83;101008.50;12858294;23;19962;-68
2022/09/03 17:26:10;;;;;;;;;;;;;;;20.57;44.46;101020.56;12858136;23;19998;-70
2022/09/03 17:31:21;;;;;;;;;;;;;;;20.40;45.07;101028.28;12876493;23;20314;-68
2022/09/03 17:36:25;;;;;;;;;;;;;;;20.31;45.22;101026.03;12875665;23;20338;-70
2022/09/03 17:41:35;;;;;;;;;;;;;;;20.22;45.95;101032.50;12858309;23;19991;-72
2022/09/03 17:46:41;;;;;;;;;;;;;;;20.24;46.49;101043.81;12861714;23;19943;-74
2022/09/03 17:51:47;;;;;;;;;;;;;;;20.14;45.92;101047.72;12880323;23;19987;-75
2022/09/03 17:56:54;;;;;;;;;;;;;;;20.03;46.08;101047.28;12879993;23;20010;-74
2022/09/03 18:02:00;;;;;;;;;;;;;;;19.95;45.83;101057.22;12880428;23;20013;-74
2022/09/03 18:07:08;;;;;;;;;;;;;;;19.91;46.38;101060.03;12862699;23;19951;-73
2022/09/03 18:12:14;;;;;;;;;;;;;;;19.80;46.58;101057.81;12882739;23;20274;-72
2022/09/03 18:17:25;;;;;;;;;;;;;;;19.66;46.89;101053.94;12863830;23;19998;-72
2022/09/03 20:10:58;;;;;;;;;;;;;;;18.24;52.25;101084.94;12876952;23;19939;-74
2022/09/03 20:16:04;;;;;;;;;;;;;;;18.16;52.83;101089.56;12859133;23;19962;-72
2022/09/03 20:21:12;;;;;;;;;;;;;;;18.05;53.60;101094.28;12878200;23;19962;-74
2022/09/03 20:26:23;;;;;;;;;;;;;;;17.96;54.39;101089.28;12876618;23;19920;-75
2022/09/03 20:31:30;;;;;;;;;;;;;;;17.88;54.75;101086.00;12877671;23;20283;-75
2022/09/03 20:36:43;;;;;;;;;;;;;;;17.78;55.68;101093.28;12876240;23;19998;-71
2022/09/03 20:41:56;;;;;;;;;;;;;;;17.76;55.56;101100.34;12875346;23;19978;-68
2022/09/03 20:47:04;;;;;;;;;;;;;;;17.74;55.34;101106.53;12859041;23;19982;-68
2022/09/03 20:52:12;;;;;;;;;;;;;;;17.68;54.74;101106.69;12875374;23;20277;-71
2022/09/03 20:57:24;;;;;;;;;;;;;;;17.46;54.78;101114.31;12875403;23;20300;-72
2022/09/03 21:02:33;;;;;;;;;;;;;;;17.44;54.83;101110.81;12875446;23;20071;-72
2022/09/03 21:07:45;;;;;;;;;;;;;;;17.49;55.03;101116.84;12875546;23;19943;-71
2022/09/03 21:12:54;;;;;;;;;;;;;;;17.33;55.71;101118.09;12858441;23;20011;-69
2022/09/03 21:18:02;;;;;;;;;;;;;;;17.14;56.80;101140.44;12880693;23;19955;-71
2022/09/03 21:23:09;;;;;;;;;;;;;;;17.03;57.19;101130.19;12886052;23;19987;-71
2022/09/03 21:28:17;;;;;;;;;;;;;;;17.03;57.55;101140.69;12877479;23;20337;-69
2022/09/03 21:33:23;;;;;;;;;;;;;;;17.14;57.38;101133.44;12885803;23;19987;-73
2022/09/03 21:38:31;;;;;;;;;;;;;;;17.08;57.79;101143.22;12885278;23;19995;-69
2022/09/03 21:43:37;;;;;;;;;;;;;;;17.04;57.84;101138.94;12885208;23;19944;-72
2022/09/03 21:48:43;;;;;;;;;;;;;;;16.80;58.09;101139.50;12885401;23;19943;-69
2022/09/03 21:53:51;;;;;;;;;;;;;;;16.75;58.12;101155.38;12885056;23;19954;-71
2022/09/03 21:59:02;;;;;;;;;;;;;;;16.75;58.46;101147.50;12884658;23;20263;-73
2022/09/03 22:04:10;;;;;;;;;;;;;;;16.69;58.60;101149.38;12877887;23;19955;-74
2022/09/03 22:09:18;;;;;;;;;;;;;;;16.72;59.26;101144.09;12869607;23;19983;-72
2022/09/03 22:14:23;;;;;;;;;;;;;;;16.71;59.33;101152.81;12883759;23;20319;-73
2022/09/03 22:19:26;;;;;;;;;;;;;;;16.66;59.75;101157.31;12868451;23;19982;-72
2022/09/03 22:24:35;;;;;;;;;;;;;;;16.64;59.84;101164.34;12868670;23;19920;-73
2022/09/03 22:29:44;;;;;;;;;;;;;;;16.56;59.94;101166.28;12868622;23;20002;-70
2022/09/03 22:34:56;;;;;;;;;;;;;;;16.50;59.96;101171.66;12883156;23;19943;-72
2022/09/03 22:40:13;;;;;;;;;;;;;;;16.35;60.43;101170.19;12882638;23;20323;-74
2022/09/03 22:45:26;;;;;;;;;;;;;;;16.38;59.56;101175.34;12881422;23;19927;-75
2022/09/03 22:50:32;;;;;;;;;;;;;;;16.37;59.77;101181.50;12881117;23;19962;-74
2022/09/03 22:55:37;;;;;;;;;;;;;;;16.33;60.31;101181.56;12880544;23;19999;-72
2022/09/03 23:00:46;;;;;;;;;;;;;;;16.33;59.99;101174.59;12867965;23;20220;-69
2022/09/03 23:05:51;;;;;;;;;;;;;;;16.15;60.11;101170.56;12880627;23;20046;-73
2022/09/03 23:11:02;;;;;;;;;;;;;;;16.07;60.51;101180.34;12867844;23;19943;-71
2022/09/03 23:16:09;;;;;;;;;;;;;;;15.92;60.72;101183.25;12879469;23;20002;-71
2022/09/03 23:21:20;;;;;;;;;;;;;;;15.86;61.29;101185.97;12879607;23;20315;-74
2022/09/03 23:26:29;;;;;;;;;;;;;;;15.81;60.94;101195.69;12878443;23;19958;-71
2022/09/03 23:31:33;;;;;;;;;;;;;;;15.72;61.36;101193.22;12868081;23;19995;-72
2022/09/03 23:36:53;;;;;;;;;;;;;;;15.66;62.08;101205.56;12867639;23;19947;-74
2022/09/03 23:42:24;;;;;;;;;;;;;;;15.56;62.49;101215.31;12867040;23;19939;-76
2022/09/03 23:47:34;;;;;;;;;;;;;;;15.39;62.62;101219.06;12875108;23;20252;-72
2022/09/03 23:52:52;;;;;;;;;;;;;;;15.41;62.94;101218.16;12874680;23;20288;-72
2022/09/03 23:58:00;;;;;;;;;;;;;;;15.39;62.84;101219.06;12873889;23;19951;-71
